createdAt,value
2023-01-27T00:01:05.398Z,12.30
2023-01-27T00:03:32.583Z,11.80
2023-01-27T00:06:01.300Z,12.90
2023-01-27T00:08:29.671Z,13.03
2023-01-27T00:11:18.918Z,12.27
2023-01-27T00:13:46.141Z,13.03
2023-01-27T00:16:13.372Z,12.57
2023-01-27T00:18:40.688Z,12.90
2023-01-27T00:21:26.597Z,12.23
2023-01-27T00:24:12.448Z,13.10
2023-01-27T00:26:39.784Z,13.73
2023-01-27T00:29:06.998Z,13.30
2023-01-27T00:31:53.039Z,13.90
2023-01-27T00:34:20.278Z,14.30
2023-01-27T00:36:47.434Z,16.13
2023-01-27T00:39:14.644Z,17.33
2023-01-27T00:41:42.226Z,16.37
2023-01-27T00:44:13.455Z,15.70
2023-01-27T00:46:41.516Z,15.57
2023-01-27T00:49:09.359Z,15.73
2023-01-27T00:51:36.912Z,14.87
2023-01-27T00:54:04.200Z,17.20
2023-01-27T00:56:31.458Z,17.00
2023-01-27T00:58:58.648Z,15.53
2023-01-27T01:01:25.840Z,16.23
2023-01-27T01:03:53.166Z,16.57
2023-01-27T01:06:21.217Z,17.27
2023-01-27T01:08:48.814Z,16.63
2023-01-27T01:11:16.852Z,17.50
2023-01-27T01:13:44.747Z,17.10
2023-01-27T01:16:14.498Z,16.97
2023-01-27T01:18:41.983Z,16.67
2023-01-27T01:21:09.316Z,17.30
2023-01-27T01:23:41.979Z,18.47
2023-01-27T01:26:10.300Z,15.47
2023-01-27T01:28:37.502Z,16.13
2023-01-27T01:31:05.942Z,16.30
2023-01-27T01:33:33.162Z,17.43
2023-01-27T01:36:11.157Z,16.20
2023-01-27T01:38:38.623Z,16.50
2023-01-27T01:41:06.776Z,16.40
2023-01-27T01:43:35.163Z,15.80
2023-01-27T01:46:03.114Z,15.07
2023-01-27T01:48:33.426Z,14.93
2023-01-27T01:51:08.454Z,15.83
2023-01-27T01:53:38.498Z,15.63
2023-01-27T01:56:08.761Z,15.30
2023-01-27T01:58:36.450Z,16.00
2023-01-27T02:01:04.901Z,14.07
2023-01-27T02:03:34.106Z,15.03
2023-01-27T02:06:01.882Z,14.13
2023-01-27T02:08:37.279Z,12.63
2023-01-27T02:11:04.890Z,14.13
2023-01-27T02:13:32.024Z,14.43
2023-01-27T02:15:59.186Z,13.67
2023-01-27T02:18:27.154Z,14.13
2023-01-27T02:20:54.960Z,13.93
2023-01-27T02:23:34.416Z,13.67
2023-01-27T02:26:12.382Z,13.20
2023-01-27T02:28:39.699Z,13.77
2023-01-27T02:31:07.009Z,13.03
2023-01-27T02:33:34.437Z,13.73
2023-01-27T02:36:03.548Z,13.27
2023-01-27T02:38:33.694Z,12.53
2023-01-27T02:41:05.024Z,12.73
2023-01-27T02:43:32.192Z,14.10
2023-01-27T02:45:59.467Z,13.30
2023-01-27T02:48:26.658Z,13.53
2023-01-27T02:50:53.802Z,13.03
2023-01-27T02:53:21.026Z,13.47
2023-01-27T02:55:48.265Z,14.20
2023-01-27T02:58:16.446Z,13.93
2023-01-27T03:00:44.275Z,15.00
2023-01-27T03:03:11.462Z,14.10
2023-01-27T03:05:38.661Z,15.30
2023-01-27T03:08:05.802Z,14.93
2023-01-27T03:10:33.354Z,14.60
2023-01-27T03:13:00.534Z,15.07
2023-01-27T03:15:46.568Z,15.50
2023-01-27T03:18:13.893Z,14.43
2023-01-27T03:20:41.405Z,14.70
2023-01-27T03:23:08.598Z,15.10
2023-01-27T03:25:35.786Z,14.60
2023-01-27T03:28:03.181Z,14.00
2023-01-27T03:30:30.590Z,14.63
2023-01-27T03:32:59.179Z,14.17
2023-01-27T03:35:34.121Z,15.37
2023-01-27T03:38:20.369Z,14.00
2023-01-27T03:41:06.768Z,13.80
2023-01-27T03:43:52.834Z,14.30
2023-01-27T03:46:20.256Z,14.13
2023-01-27T03:48:51.778Z,14.30
2023-01-27T03:51:19.482Z,14.40
2023-01-27T03:53:47.200Z,14.10
2023-01-27T03:56:15.142Z,14.13
2023-01-27T03:58:42.379Z,12.53
2023-01-27T04:01:17.757Z,14.33
2023-01-27T04:04:03.840Z,14.03
2023-01-27T04:06:51.017Z,13.77
2023-01-27T04:09:21.014Z,14.00
2023-01-27T04:12:00.648Z,13.60
2023-01-27T04:14:35.637Z,15.07
2023-01-27T04:17:06.078Z,13.83
2023-01-27T04:19:33.771Z,13.33
2023-01-27T04:22:01.674Z,16.53
2023-01-27T04:24:29.082Z,15.73
2023-01-27T04:26:59.254Z,14.47
2023-01-27T04:29:28.016Z,14.33
2023-01-27T04:31:56.095Z,15.63
2023-01-27T04:34:23.372Z,16.27
2023-01-27T04:36:50.613Z,16.00
2023-01-27T04:39:18.330Z,17.60
2023-01-27T04:41:45.777Z,16.77
2023-01-27T04:44:13.373Z,16.87
2023-01-27T04:46:41.226Z,17.70
2023-01-27T04:49:09.066Z,17.43
2023-01-27T04:51:36.294Z,17.37
2023-01-27T04:54:06.443Z,16.87
2023-01-27T04:56:34.595Z,16.77
2023-01-27T04:59:02.894Z,17.40
2023-01-27T05:01:30.216Z,17.43
2023-01-27T05:03:57.728Z,17.97
2023-01-27T05:06:25.319Z,16.20
2023-01-27T05:08:52.508Z,17.03
2023-01-27T05:11:20.470Z,15.33
2023-01-27T05:13:47.776Z,17.27
2023-01-27T05:16:16.202Z,18.30
2023-01-27T05:18:43.971Z,17.80
2023-01-27T05:21:15.149Z,18.60
2023-01-27T05:23:42.456Z,17.93
2023-01-27T05:26:09.630Z,18.60
2023-01-27T05:28:37.783Z,17.03
2023-01-27T05:31:06.311Z,18.73
2023-01-27T05:33:33.818Z,19.53
2023-01-27T05:36:02.526Z,19.03
2023-01-27T05:38:30.188Z,17.77
2023-01-27T05:41:02.634Z,17.47
2023-01-27T05:43:30.897Z,18.80
2023-01-27T05:46:27.265Z,19.50
2023-01-27T05:48:55.773Z,18.57
2023-01-27T05:51:24.478Z,17.17
2023-01-27T05:53:52.051Z,19.67
2023-01-27T05:56:20.352Z,18.30
2023-01-27T05:58:47.693Z,19.60
2023-01-27T06:01:16.729Z,17.87
2023-01-27T06:03:45.202Z,19.03
2023-01-27T06:06:13.167Z,18.40
2023-01-27T06:08:40.778Z,19.23
2023-01-27T06:11:08.839Z,20.13
2023-01-27T06:13:36.125Z,19.57
2023-01-27T06:16:05.054Z,20.33
2023-01-27T06:18:32.562Z,18.53
2023-01-27T06:21:03.618Z,18.70
2023-01-27T06:23:30.977Z,17.17
2023-01-27T06:26:01.526Z,19.10
2023-01-27T06:28:29.883Z,19.03
2023-01-27T06:30:58.008Z,19.07
2023-01-27T06:33:25.345Z,16.87
2023-01-27T06:35:52.567Z,15.70
2023-01-27T06:38:19.816Z,16.57
2023-01-27T06:40:47.164Z,17.27
2023-01-27T06:43:14.910Z,18.20
2023-01-27T06:45:42.491Z,14.53
2023-01-27T06:48:09.697Z,16.07
2023-01-27T06:50:37.609Z,16.40
2023-01-27T06:53:05.995Z,15.50
2023-01-27T06:55:33.955Z,16.53
2023-01-27T06:58:04.204Z,15.90
2023-01-27T07:00:31.403Z,15.37
2023-01-27T07:02:58.579Z,15.13
2023-01-27T07:05:26.052Z,14.30
2023-01-27T07:07:53.210Z,14.70
2023-01-27T07:10:20.496Z,15.47
2023-01-27T07:12:47.662Z,15.00
2023-01-27T07:15:15.461Z,14.27
2023-01-27T07:17:42.846Z,13.67
2023-01-27T07:20:12.510Z,14.43
2023-01-27T07:22:40.359Z,14.03
2023-01-27T07:25:07.714Z,14.70
2023-01-27T07:27:34.956Z,14.67
2023-01-27T07:30:02.121Z,13.90
2023-01-27T07:32:29.315Z,13.97
2023-01-27T07:34:56.664Z,13.00
2023-01-27T07:37:23.906Z,14.33
2023-01-27T07:39:51.224Z,14.43
2023-01-27T07:42:18.354Z,14.47
2023-01-27T07:44:45.540Z,13.83
2023-01-27T07:47:12.767Z,15.03
2023-01-27T07:49:39.929Z,12.20
2023-01-27T07:52:07.125Z,15.13
2023-01-27T07:54:34.270Z,13.33
2023-01-27T07:57:01.786Z,12.63
2023-01-27T07:59:29.341Z,14.40
2023-01-27T08:01:56.527Z,14.23
2023-01-27T08:04:23.714Z,14.03
2023-01-27T08:06:50.921Z,14.73
2023-01-27T08:09:18.107Z,15.40
2023-01-27T08:11:45.268Z,14.90
2023-01-27T08:14:12.475Z,14.50
2023-01-27T08:16:39.768Z,14.87
2023-01-27T08:19:06.949Z,13.97
2023-01-27T08:21:34.151Z,15.30
2023-01-27T08:24:01.601Z,14.90
2023-01-27T08:26:30.171Z,14.70
2023-01-27T08:28:57.731Z,14.93
2023-01-27T08:31:24.945Z,15.07
2023-01-27T08:33:53.787Z,13.33
2023-01-27T08:36:22.047Z,14.40
2023-01-27T08:38:49.899Z,14.00
2023-01-27T08:41:19.198Z,14.27
2023-01-27T08:43:46.394Z,14.27
2023-01-27T08:46:13.977Z,13.73
2023-01-27T08:48:42.412Z,14.63
2023-01-27T08:51:10.114Z,15.30
2023-01-27T08:53:37.407Z,15.47
2023-01-27T08:56:06.728Z,14.27
2023-01-27T08:58:34.076Z,15.47
2023-01-27T09:01:02.525Z,16.47
2023-01-27T09:03:30.243Z,17.43
2023-01-27T09:05:57.474Z,16.27
2023-01-27T09:08:25.061Z,16.27
2023-01-27T09:10:52.383Z,15.83
2023-01-27T09:13:22.314Z,15.50
2023-01-27T09:15:52.726Z,15.53
2023-01-27T09:18:20.483Z,14.47
2023-01-27T09:20:48.003Z,16.33
2023-01-27T09:23:15.165Z,15.60
2023-01-27T09:25:42.390Z,15.50
2023-01-27T09:28:16.977Z,14.67
2023-01-27T09:30:47.497Z,14.40
2023-01-27T09:33:15.668Z,13.13
2023-01-27T09:35:45.581Z,12.83
2023-01-27T09:38:14.389Z,11.83
2023-01-27T09:40:49.113Z,14.30
2023-01-27T09:43:36.327Z,12.57
2023-01-27T09:46:13.933Z,12.13
2023-01-27T09:48:41.147Z,14.13
2023-01-27T09:51:21.334Z,12.33
2023-01-27T09:53:51.563Z,13.70
2023-01-27T09:56:21.831Z,13.83
2023-01-27T09:59:07.582Z,13.17
2023-01-27T10:01:40.175Z,14.07
2023-01-27T10:04:28.945Z,13.17
2023-01-27T10:07:14.558Z,13.10
2023-01-27T10:09:51.846Z,13.70
2023-01-27T10:12:35.149Z,12.73
2023-01-27T10:15:02.343Z,13.70
2023-01-27T10:17:43.427Z,13.70
2023-01-27T10:20:10.779Z,14.07
2023-01-27T10:22:59.054Z,13.87
2023-01-27T10:25:32.110Z,14.27
2023-01-27T10:27:59.954Z,13.17
2023-01-27T10:30:37.015Z,13.50
2023-01-27T10:33:04.165Z,14.00
2023-01-27T10:35:54.648Z,14.83
2023-01-27T10:38:48.274Z,13.93
2023-01-27T10:41:20.802Z,13.83
2023-01-27T10:44:03.330Z,14.10
2023-01-27T10:46:30.519Z,14.20
2023-01-27T10:48:57.694Z,16.33
2023-01-27T10:51:44.927Z,14.37
2023-01-27T10:54:21.274Z,13.60
2023-01-27T10:56:51.275Z,14.23
2023-01-27T10:59:18.409Z,14.33
2023-01-27T11:01:47.905Z,14.13
2023-01-27T11:04:39.174Z,15.00
2023-01-27T11:07:06.887Z,15.23
2023-01-27T11:09:38.147Z,15.67
2023-01-27T11:12:06.828Z,15.37
2023-01-27T11:14:48.483Z,15.53
2023-01-27T11:17:15.614Z,16.07
2023-01-27T11:19:57.426Z,15.53
2023-01-27T11:22:28.236Z,14.47
2023-01-27T11:25:13.849Z,14.80
2023-01-27T11:28:10.688Z,15.00
2023-01-27T11:30:47.859Z,15.20
2023-01-27T11:33:15.109Z,14.00
2023-01-27T11:35:42.416Z,14.13
2023-01-27T11:38:15.946Z,14.93
2023-01-27T11:40:44.330Z,16.13
2023-01-27T11:43:16.248Z,14.43
2023-01-27T11:45:46.474Z,14.57
2023-01-27T11:48:15.557Z,15.17
2023-01-27T11:50:43.663Z,14.43
2023-01-27T11:53:13.235Z,14.50
2023-01-27T11:55:42.363Z,14.90
2023-01-27T11:58:48.116Z,15.77
2023-01-27T12:01:19.656Z,15.73
2023-01-27T12:03:53.621Z,14.73
2023-01-27T12:06:34.053Z,15.03
2023-01-27T12:09:01.307Z,15.80
2023-01-27T12:11:29.899Z,14.47
2023-01-27T12:13:58.409Z,14.73
2023-01-27T12:16:28.162Z,15.03
2023-01-27T12:18:57.235Z,15.50
2023-01-27T12:21:35.440Z,15.37
2023-01-27T12:24:02.774Z,15.40
2023-01-27T12:26:38.154Z,14.93
2023-01-27T12:29:07.718Z,15.70
2023-01-27T12:31:44.692Z,15.20
2023-01-27T12:34:23.806Z,14.10
2023-01-27T12:36:51.792Z,16.57
2023-01-27T12:39:28.394Z,15.37
2023-01-27T12:41:55.624Z,16.30
2023-01-27T12:44:23.295Z,16.00
2023-01-27T12:46:59.674Z,12.93
2023-01-27T12:49:31.571Z,16.27
2023-01-27T12:52:02.124Z,16.90
2023-01-27T12:54:32.437Z,15.67
2023-01-27T12:57:04.354Z,15.60
2023-01-27T12:59:32.358Z,16.00
2023-01-27T13:02:08.413Z,15.83
2023-01-27T13:04:37.502Z,16.13
2023-01-27T13:07:09.046Z,15.10
2023-01-27T13:09:54.274Z,15.83
2023-01-27T13:12:25.583Z,15.27
2023-01-27T13:14:57.533Z,14.97
2023-01-27T13:17:39.475Z,14.47
2023-01-27T13:20:14.668Z,14.00
2023-01-27T13:22:44.633Z,14.93
2023-01-27T13:25:17.363Z,14.17
2023-01-27T13:27:45.084Z,14.30
2023-01-27T13:30:24.502Z,13.63
2023-01-27T13:32:53.384Z,14.87
2023-01-27T13:35:24.952Z,15.37
2023-01-27T13:37:52.111Z,14.77
2023-01-27T13:40:22.737Z,15.90
2023-01-27T13:42:55.783Z,14.47
2023-01-27T13:45:24.448Z,14.97
2023-01-27T13:47:59.321Z,15.17
2023-01-27T13:50:31.931Z,15.87
2023-01-27T13:53:00.181Z,14.70
2023-01-27T13:55:27.328Z,14.43
2023-01-27T13:57:54.537Z,16.03
2023-01-27T14:00:51.166Z,15.80
2023-01-27T14:03:21.507Z,14.60
2023-01-27T14:05:54.875Z,16.03
2023-01-27T14:08:45.398Z,14.30
2023-01-27T14:11:17.653Z,16.00
2023-01-27T14:13:48.304Z,16.00
2023-01-27T14:16:18.647Z,15.60
2023-01-27T14:18:48.721Z,16.17
2023-01-27T14:21:25.055Z,15.70
2023-01-27T14:24:20.664Z,15.33
2023-01-27T14:27:01.253Z,17.30
2023-01-27T14:29:37.216Z,17.27
2023-01-27T14:32:04.722Z,16.70
2023-01-27T14:34:31.972Z,15.93
2023-01-27T14:37:01.898Z,16.10
2023-01-27T14:39:29.030Z,17.17
2023-01-27T14:42:07.773Z,16.30
2023-01-27T14:44:49.869Z,16.77
2023-01-27T14:47:31.750Z,17.73
2023-01-27T14:50:05.535Z,17.20
2023-01-27T14:52:48.862Z,17.53
2023-01-27T14:55:33.791Z,16.47
2023-01-27T14:58:04.042Z,17.60
2023-01-27T15:00:31.986Z,18.43
2023-01-27T15:03:05.692Z,17.77
2023-01-27T15:05:51.734Z,16.80
2023-01-27T15:08:21.760Z,17.57
2023-01-27T15:11:04.581Z,17.53
2023-01-27T15:13:50.417Z,19.13
2023-01-27T15:16:17.624Z,17.50
2023-01-27T15:19:04.688Z,17.53
2023-01-27T15:21:50.153Z,17.53
2023-01-27T15:24:34.422Z,17.73
2023-01-27T15:27:02.287Z,19.10
2023-01-27T15:29:30.816Z,17.53
2023-01-27T15:32:24.197Z,17.40
2023-01-27T15:34:55.962Z,16.20
2023-01-27T15:37:30.614Z,16.27
2023-01-27T15:40:05.404Z,16.43
2023-01-27T15:43:05.376Z,16.73
2023-01-27T15:45:37.171Z,17.60
2023-01-27T15:48:10.400Z,16.03
2023-01-27T15:50:39.093Z,14.63
2023-01-27T15:53:14.368Z,13.30
2023-01-27T15:55:48.670Z,12.53
2023-01-27T15:58:18.846Z,14.03
2023-01-27T16:00:53.937Z,12.90
2023-01-27T16:03:27.292Z,11.17
2023-01-27T16:06:01.221Z,10.47
2023-01-27T16:08:31.160Z,10.10
2023-01-27T16:11:17.046Z,9.10
2023-01-27T16:13:45.292Z,9.33
2023-01-27T16:16:18.434Z,9.03
2023-01-27T16:18:52.264Z,9.63
2023-01-27T16:21:30.377Z,9.43
2023-01-27T16:23:59.449Z,8.80
2023-01-27T16:26:30.808Z,9.37
2023-01-27T16:29:04.725Z,8.47
2023-01-27T16:31:32.528Z,8.47
2023-01-27T16:34:01.227Z,8.80
2023-01-27T16:36:30.245Z,9.40
2023-01-27T16:38:59.412Z,9.33
2023-01-27T16:41:28.315Z,8.53
2023-01-27T16:43:59.835Z,7.97
2023-01-27T16:46:34.389Z,7.87
2023-01-27T16:49:04.868Z,9.03
2023-01-27T16:51:33.077Z,8.47
2023-01-27T16:54:01.088Z,5.33
2023-01-27T16:56:29.543Z,7.67
2023-01-27T16:59:00.273Z,8.17
2023-01-27T17:01:31.953Z,8.30
2023-01-27T17:04:07.620Z,8.40
2023-01-27T17:06:38.330Z,7.80
2023-01-27T17:09:19.595Z,8.53
2023-01-27T17:11:47.146Z,7.57
2023-01-27T17:14:29.984Z,8.67
2023-01-27T17:16:59.806Z,7.37
2023-01-27T17:19:34.217Z,7.20
2023-01-27T17:22:06.629Z,8.47
2023-01-27T17:24:35.783Z,7.80
2023-01-27T17:27:06.176Z,8.03
2023-01-27T17:29:36.203Z,8.07
2023-01-27T17:32:03.733Z,8.63
2023-01-27T17:34:31.104Z,9.53
2023-01-27T17:37:07.166Z,9.07
2023-01-27T17:39:39.457Z,7.70
2023-01-27T17:42:07.534Z,9.53
2023-01-27T17:44:34.973Z,9.37
2023-01-27T17:47:02.564Z,9.90
2023-01-27T17:49:31.724Z,9.40
2023-01-27T17:52:00.288Z,9.47
2023-01-27T17:54:27.518Z,9.60
2023-01-27T17:57:00.381Z,8.93
2023-01-27T17:59:29.074Z,8.93
2023-01-27T18:02:00.018Z,8.37
2023-01-27T18:04:27.328Z,7.90
2023-01-27T18:06:54.918Z,8.87
2023-01-27T18:09:27.487Z,7.10
2023-01-27T18:11:59.354Z,8.17
2023-01-27T18:14:27.129Z,8.07
2023-01-27T18:17:00.847Z,6.90
2023-01-27T18:19:28.411Z,7.63
2023-01-27T18:22:02.655Z,6.43
2023-01-27T18:24:29.920Z,7.03
2023-01-27T18:26:57.122Z,6.60
2023-01-27T18:29:26.327Z,7.63
2023-01-27T18:32:12.366Z,4.10
2023-01-27T18:34:49.161Z,4.53
2023-01-27T18:37:30.854Z,4.50
2023-01-27T18:40:02.010Z,5.50
2023-01-27T18:42:30.576Z,4.60
2023-01-27T18:44:58.195Z,4.47
2023-01-27T18:47:29.526Z,4.93
2023-01-27T18:49:56.857Z,4.03
2023-01-27T18:52:24.313Z,3.60
2023-01-27T18:54:54.137Z,4.17
2023-01-27T18:57:21.454Z,4.40
2023-01-27T18:59:48.616Z,3.70
2023-01-27T19:02:16.370Z,3.87
2023-01-27T19:04:43.917Z,4.07
2023-01-27T19:07:15.944Z,3.93
2023-01-27T19:09:43.998Z,4.33
2023-01-27T19:12:11.794Z,4.10
2023-01-27T19:14:41.511Z,4.23
2023-01-27T19:17:16.168Z,3.37
2023-01-27T19:19:43.382Z,4.33
2023-01-27T19:22:15.849Z,3.93
2023-01-27T19:24:45.457Z,3.97
2023-01-27T19:27:13.736Z,3.93
2023-01-27T19:29:40.960Z,3.93
2023-01-27T19:32:11.259Z,3.67
2023-01-27T19:34:38.576Z,3.70
2023-01-27T19:37:06.217Z,4.03
2023-01-27T19:39:33.405Z,3.83
2023-01-27T19:42:00.602Z,4.63
2023-01-27T19:44:27.855Z,3.80
2023-01-27T19:46:55.678Z,3.80
2023-01-27T19:49:22.932Z,4.00
2023-01-27T19:51:50.459Z,3.83
2023-01-27T19:54:17.939Z,4.37
2023-01-27T19:56:45.719Z,3.80
2023-01-27T19:59:13.739Z,4.30
2023-01-27T20:02:01.860Z,2.97
2023-01-27T20:04:29.209Z,4.00
2023-01-27T20:06:56.483Z,3.87
2023-01-27T20:09:24.033Z,4.17
2023-01-27T20:11:51.649Z,3.37
2023-01-27T20:14:22.761Z,3.93
2023-01-27T20:16:50.347Z,4.33
2023-01-27T20:19:17.884Z,4.10
2023-01-27T20:21:46.129Z,4.00
2023-01-27T20:24:22.787Z,4.80
2023-01-27T20:26:50.177Z,4.80
2023-01-27T20:29:17.584Z,4.60
2023-01-27T20:31:45.068Z,4.90
2023-01-27T20:34:12.551Z,3.97
2023-01-27T20:36:40.052Z,3.37
2023-01-27T20:39:07.554Z,4.37
2023-01-27T20:41:34.925Z,4.03
2023-01-27T20:44:02.453Z,4.23
2023-01-27T20:46:30.045Z,3.47
2023-01-27T20:48:58.821Z,2.77
2023-01-27T20:51:26.055Z,4.07
2023-01-27T20:53:53.687Z,3.90
2023-01-27T20:56:22.583Z,4.17
2023-01-27T20:58:49.878Z,4.27
2023-01-27T21:01:20.888Z,4.27
2023-01-27T21:03:48.162Z,4.53
2023-01-27T21:06:15.925Z,4.53
2023-01-27T21:08:43.763Z,3.83
2023-01-27T21:11:13.177Z,3.73
2023-01-27T21:13:40.564Z,4.00
2023-01-27T21:16:08.364Z,4.40
2023-01-27T21:18:38.573Z,4.00
2023-01-27T21:21:06.365Z,3.90
2023-01-27T21:23:34.297Z,3.83
2023-01-27T21:26:13.874Z,3.87
2023-01-27T21:28:41.830Z,4.13
2023-01-27T21:31:10.295Z,3.80
2023-01-27T21:33:38.305Z,3.63
2023-01-27T21:36:08.043Z,4.03
2023-01-27T21:38:36.771Z,3.70
2023-01-27T21:41:35.339Z,3.70
2023-01-27T21:44:21.790Z,4.13
2023-01-27T21:46:49.263Z,3.70
2023-01-27T21:49:16.847Z,4.00
2023-01-27T21:51:44.107Z,2.83
2023-01-27T21:54:11.414Z,3.60
2023-01-27T21:56:38.551Z,3.30
2023-01-27T21:59:05.778Z,3.30
2023-01-27T22:01:34.503Z,3.70
2023-01-27T22:04:01.970Z,3.73
2023-01-27T22:06:29.214Z,3.80
2023-01-27T22:08:56.401Z,3.60
2023-01-27T22:11:23.686Z,3.87
2023-01-27T22:13:50.888Z,2.93
2023-01-27T22:16:18.619Z,3.00
2023-01-27T22:18:45.867Z,4.00
2023-01-27T22:21:12.997Z,3.83
2023-01-27T22:23:40.310Z,3.27
2023-01-27T22:26:09.193Z,3.90
2023-01-27T22:28:36.375Z,3.30
2023-01-27T22:31:03.644Z,4.30
2023-01-27T22:33:32.084Z,3.70
2023-01-27T22:36:02.154Z,4.23
2023-01-27T22:38:29.392Z,3.40
2023-01-27T22:40:57.286Z,3.20
2023-01-27T22:43:24.483Z,4.30
2023-01-27T22:45:51.696Z,3.60
2023-01-27T22:48:19.097Z,4.10
2023-01-27T22:50:46.317Z,4.00
2023-01-27T22:53:13.531Z,3.43
2023-01-27T22:55:46.144Z,3.80
2023-01-27T22:58:13.285Z,3.97
2023-01-27T23:00:40.456Z,3.90
2023-01-27T23:03:07.656Z,4.40
2023-01-27T23:05:34.803Z,4.13
2023-01-27T23:08:01.930Z,4.30
2023-01-27T23:10:29.242Z,4.00
2023-01-27T23:12:56.498Z,4.30
2023-01-27T23:15:23.623Z,4.23
2023-01-27T23:17:51.214Z,3.90
2023-01-27T23:20:18.537Z,4.97
2023-01-27T23:22:46.199Z,3.60
2023-01-27T23:25:13.799Z,4.00
2023-01-27T23:27:42.000Z,3.60
2023-01-27T23:30:10.298Z,3.20
2023-01-27T23:32:38.239Z,3.60
2023-01-27T23:35:05.953Z,3.20
2023-01-27T23:37:33.448Z,3.30
2023-01-27T23:40:00.632Z,3.57
2023-01-27T23:42:27.771Z,3.53
2023-01-27T23:44:55.069Z,3.23
2023-01-27T23:47:22.546Z,3.73
2023-01-27T23:49:49.813Z,3.90
2023-01-27T23:52:16.938Z,3.50
2023-01-27T23:54:44.070Z,3.13
2023-01-27T23:57:11.294Z,3.23
2023-01-27T23:59:38.536Z,3.13
